Time;durP1;ratioP1;P1;durP2;ratioP2;P2;SDS_P1;SDS_P2;PMS_P1;PMS_P2;Temp;Humidity;BMP_temperature;BMP_pressure;BME280_temperature;BME280_humidity;BME280_pressure;Samples;Min_cycle;Max_cycle;Signal;HPM_P1;HPM_P2
2023/01/25 00:29:21;;;;;;;45.20;24.90;;;;;;;-2.16;100.00;101590.27;103851;1296;600384;-69
2023/01/25 00:31:56;;;;;;;58.10;36.20;;;;;;;-2.15;100.00;101593.58;105726;1274;62503;-74
2023/01/25 00:34:24;;;;;;;54.50;32.60;;;;;;;-2.09;100.00;101590.45;105132;1276;59650;-73
2023/01/25 00:37:05;;;;;;;53.30;30.50;;;;;;;-2.03;100.00;101591.14;105188;1273;73099;-74
2023/01/25 00:39:35;;;;;;;53.80;32.50;;;;;;;-1.95;100.00;101594.77;105214;1270;68684;-73
2023/01/25 00:42:09;;;;;;;45.00;29.60;;;;;;;-1.79;100.00;101588.89;105612;1258;630297;-76
2023/01/25 00:44:37;;;;;;;35.60;23.20;;;;;;;-1.55;100.00;101586.08;105972;1260;60623;-74
2023/01/25 00:47:11;;;;;;;37.10;22.90;;;;;;;-1.47;100.00;101583.59;105873;1260;59452;-73
2023/01/25 00:49:41;;;;;;;41.20;26.60;;;;;;;-1.49;100.00;101584.27;105851;1256;72025;-75
2023/01/25 00:52:09;;;;;;;41.00;25.50;;;;;;;-1.47;100.00;101582.91;105845;1258;68061;-79
2023/01/25 00:54:39;;;;;;;37.20;24.20;;;;;;;-1.36;100.00;101582.51;105980;1257;73527;-75
2023/01/25 00:57:08;;;;;;;36.70;24.00;;;;;;;-1.24;100.00;101579.39;106075;1258;60231;-74
2023/01/25 00:59:36;;;;;;;42.20;25.00;;;;;;;-1.11;100.00;101582.40;105990;1256;61359;-73
2023/01/25 01:02:05;;;;;;;39.70;23.70;;;;;;;-0.98;100.00;101577.20;105789;1260;74560;-75
2023/01/25 01:04:33;;;;;;;32.70;20.00;;;;;;;-0.90;100.00;101579.48;105774;1269;69417;-74
2023/01/25 01:07:02;;;;;;;35.30;22.80;;;;;;;-0.88;100.00;101582.84;105750;1259;73502;-72
2023/01/25 01:09:31;;;;;;;38.00;22.50;;;;;;;-0.87;100.00;101582.78;105779;1260;59677;-73
2023/01/25 01:11:59;;;;;;;31.10;20.40;;;;;;;-0.88;100.00;101576.70;105712;1263;59637;-70
2023/01/25 01:17:54;;;;;;;39.20;21.90;;;;;;;-1.02;100.00;101578.20;105764;1261;68755;-73
2023/01/25 01:20:22;;;;;;;25.90;17.90;;;;;;;-0.98;100.00;101578.27;105766;1262;74456;-72
2023/01/25 01:22:54;;;;;;;35.00;22.80;;;;;;;-0.92;100.00;101576.88;105819;1256;59685;-72
2023/01/25 01:25:22;;;;;;;34.60;20.20;;;;;;;-0.88;100.00;101578.11;105764;1258;62149;-72
2023/01/25 01:27:50;;;;;;;31.70;22.00;;;;;;;-0.88;100.00;101581.50;105758;1257;72069;-73
2023/01/25 01:30:20;;;;;;;36.30;22.00;;;;;;;-0.90;100.00;101581.11;105879;1262;69660;-74
2023/01/25 01:32:50;;;;;;;29.30;18.70;;;;;;;-0.90;100.00;101581.27;105712;1258;74606;-73
2023/01/25 01:35:18;;;;;;;27.10;18.30;;;;;;;-0.92;100.00;101582.48;105869;1258;60041;-71
2023/01/25 01:37:47;;;;;;;28.20;18.60;;;;;;;-0.97;100.00;101575.71;105853;1257;61288;-73
2023/01/25 01:40:16;;;;;;;25.90;19.90;;;;;;;-1.00;100.00;101574.52;105768;1257;72478;-71
2023/01/25 01:43:01;;;;;;;30.80;20.10;;;;;;;-1.04;100.00;101575.45;105608;1257;70026;-71
2023/01/25 01:45:43;;;;;;;33.80;20.50;;;;;;;-1.10;100.00;101576.23;105813;1260;72378;-72
2023/01/25 01:48:23;;;;;;;;;;;;;;;-1.09;100.00;101574.06;105903;1257;60773;-73
2023/01/25 01:50:52;;;;;;;27.20;17.10;;;;;;;-1.04;100.00;101570.31;105637;1260;59856;-72
2023/01/25 01:53:21;;;;;;;28.80;19.00;;;;;;;-0.97;100.00;101574.10;105475;1257;72702;-70
2023/01/25 01:55:50;;;;;;;30.60;20.10;;;;;;;-0.91;100.00;101569.06;105875;1270;66994;-69
2023/01/25 01:58:19;;;;;;;25.60;16.60;;;;;;;-0.87;100.00;101567.66;105282;1257;74870;-69
2023/01/25 02:00:47;;;;;;;28.20;20.20;;;;;;;-0.88;100.00;101567.40;105177;1256;61536;-70
2023/01/25 02:03:15;;;;;;;25.90;19.80;;;;;;;-0.89;100.00;101565.70;105230;1258;61198;-70
2023/01/25 02:05:55;;;;;;;28.30;18.00;;;;;;;-0.90;100.00;101564.02;105391;1259;73239;-69
2023/01/25 02:08:23;;;;;;;26.70;20.50;;;;;;;-0.94;99.94;101560.11;105205;1260;68856;-69
2023/01/25 02:10:52;;;;;;;27.90;19.70;;;;;;;-0.95;99.90;101558.27;105404;1257;72694;-71
2023/01/25 02:13:20;;;;;;;27.30;18.20;;;;;;;-0.94;99.81;101554.88;105301;1257;62414;-70
2023/01/25 02:15:49;;;;;;;35.90;22.30;;;;;;;-0.96;99.29;101547.95;105420;1257;61160;-73
2023/01/25 02:18:18;;;;;;;32.70;20.90;;;;;;;-0.94;99.01;101540.55;105289;1261;73924;-70
2023/01/25 02:20:49;;;;;;;33.10;22.50;;;;;;;-0.94;98.34;101536.00;105293;1257;67951;-71
2023/01/25 02:23:27;;;;;;;24.90;16.30;;;;;;;-0.97;97.88;101535.88;105477;1260;71514;-70
2023/01/25 02:25:57;;;;;;;29.20;20.80;;;;;;;-1.00;97.61;101537.05;105387;1260;59791;-72
2023/01/25 02:28:27;;;;;;;30.10;20.00;;;;;;;-1.04;97.26;101539.89;105649;1260;59660;-72
2023/01/25 02:30:55;;;;;;;32.10;20.30;;;;;;;-1.09;97.26;101538.88;105491;1258;73320;-71
2023/01/25 02:33:24;;;;;;;23.90;18.90;;;;;;;-1.12;97.14;101541.12;105789;1257;67934;-70
2023/01/25 02:36:12;;;;;;;33.90;24.00;;;;;;;-1.16;97.16;101540.20;105900;1261;73290;-70
2023/01/25 02:38:53;;;;;;;29.30;20.60;;;;;;;-1.17;96.98;101542.20;105157;1260;60792;-70
2023/01/25 02:41:31;;;;;;;35.50;21.50;;;;;;;-1.17;97.03;101543.06;105756;1257;61225;-71
2023/01/25 02:44:00;;;;;;;34.30;20.50;;;;;;;-1.13;97.16;101538.32;105644;1260;72940;-70
2023/01/25 02:46:33;;;;;;;30.80;20.10;;;;;;;-1.07;97.25;101545.55;105307;1260;67492;-72
2023/01/25 02:49:02;;;;;;;31.10;20.40;;;;;;;-1.01;97.24;101544.50;105359;1260;72869;-73
2023/01/25 02:51:32;;;;;;;30.50;22.90;;;;;;;-0.95;97.03;101543.50;105769;1256;59759;-74
2023/01/25 02:54:01;;;;;;;33.30;21.90;;;;;;;-0.94;96.46;101543.56;105739;1258;61080;-71
2023/01/25 02:56:29;;;;;;;32.40;20.30;;;;;;;-0.94;96.29;101542.13;105750;1257;73706;-71
2023/01/25 02:58:58;;;;;;;27.00;19.40;;;;;;;-0.95;96.08;101538.70;105382;1261;67616;-72
2023/01/25 03:01:26;;;;;;;39.30;20.40;;;;;;;-0.97;95.67;101537.68;105426;1261;74325;-74
2023/01/25 03:03:54;;;;;;;32.90;19.20;;;;;;;-1.03;95.33;101535.92;105840;1260;59641;-72
2023/01/25 03:06:23;;;;;;;33.50;21.90;;;;;;;-1.08;95.04;101534.92;105894;1257;61570;-71
2023/01/25 03:08:51;;;;;;;30.00;22.80;;;;;;;-1.13;94.82;101533.45;105961;1260;72967;-71
2023/01/25 03:11:19;;;;;;;32.60;22.40;;;;;;;-1.22;94.29;101529.96;105448;1260;68080;-73
2023/01/25 03:13:48;;;;;;;28.30;21.10;;;;;;;-1.32;94.35;101533.07;105349;1258;72311;-73
2023/01/25 03:16:16;;;;;;;27.80;19.70;;;;;;;-1.36;95.08;101532.04;104852;1260;1003096;-72
2023/01/25 03:18:44;;;;;;;34.90;25.80;;;;;;;-1.29;95.08;101536.20;105704;1261;59986;-71
2023/01/25 03:21:18;;;;;;;34.50;25.80;;;;;;;-1.20;94.40;101537.35;105796;1257;73758;-74
2023/01/25 03:23:47;;;;;;;38.50;23.70;;;;;;;-1.12;93.64;101543.71;105819;1258;70176;-73
2023/01/25 03:26:20;;;;;;;32.00;22.20;;;;;;;-1.07;93.06;101549.08;105882;1257;73200;-72
2023/01/25 03:29:04;;;;;;;29.50;19.80;;;;;;;-1.02;92.72;101550.94;105827;1261;59718;-72
2023/01/25 03:31:33;;;;;;;30.50;20.90;;;;;;;-0.98;92.66;101548.33;105648;1257;59890;-73
2023/01/25 03:34:02;;;;;;;24.80;17.20;;;;;;;-1.00;92.28;101548.67;105758;1257;73428;-72
2023/01/25 03:36:34;;;;;;;30.10;23.70;;;;;;;-1.05;92.11;101545.24;105731;1257;68553;-72
2023/01/25 03:39:03;;;;;;;43.10;25.10;;;;;;;-1.08;92.44;101543.56;105766;1260;73140;-73
2023/01/25 03:41:36;;;;;;;35.10;25.30;;;;;;;-1.07;92.39;101545.43;105927;1257;61318;-73
2023/01/25 03:44:10;;;;;;;38.60;23.20;;;;;;;-1.05;92.18;101545.02;105791;1257;61859;-72
2023/01/25 03:46:39;;;;;;;35.10;24.70;;;;;;;-1.03;91.22;101548.55;105673;1260;74696;-72
2023/01/25 03:49:08;;;;;;;36.80;22.90;;;;;;;-0.97;90.77;101554.92;105312;1257;68820;-73
2023/01/25 03:51:36;;;;;;;39.50;23.60;;;;;;;-0.97;89.95;101553.68;105791;1260;72080;-72
2023/01/25 03:54:07;;;;;;;32.70;22.20;;;;;;;-0.94;89.62;101549.77;105780;1260;61413;-72
2023/01/25 03:56:36;;;;;;;34.60;21.90;;;;;;;-0.95;89.00;101553.54;105827;1257;61245;-71
2023/01/25 03:59:11;;;;;;;29.00;21.70;;;;;;;-1.00;88.68;101549.58;105151;1260;73997;-69
2023/01/25 04:01:39;;;;;;;27.80;20.50;;;;;;;-1.03;88.37;101550.73;105269;1257;68774;-72
2023/01/25 04:04:07;;;;;;;31.60;21.80;;;;;;;-1.05;88.27;101551.77;105820;1257;72095;-72
2023/01/25 04:06:37;;;;;;;28.70;18.50;;;;;;;-1.09;88.26;101555.20;105523;1257;60322;-74
2023/01/25 04:09:06;;;;;;;32.90;16.60;;;;;;;-1.15;87.99;101549.44;105452;1257;62018;-74
2023/01/25 04:11:39;;;;;;;25.60;17.60;;;;;;;-1.23;87.60;101545.94;105815;1258;74548;-71
2023/01/25 04:14:08;;;;;;;25.40;17.60;;;;;;;-1.30;87.66;101546.15;105799;1257;68533;-71
2023/01/25 04:16:47;;;;;;;21.10;15.70;;;;;;;-1.30;87.91;101550.31;105884;1257;73134;-70
2023/01/25 04:19:28;;;;;;;21.80;16.80;;;;;;;-1.25;88.17;101544.12;105926;1259;60334;-72
2023/01/25 04:21:58;;;;;;;20.30;16.10;;;;;;;-1.20;88.27;101543.32;105792;1257;61821;-72
2023/01/25 04:24:32;;;;;;;25.50;17.20;;;;;;;-1.14;88.04;101542.14;105252;1256;72507;-71
2023/01/25 04:27:00;;;;;;;25.00;16.10;;;;;;;-1.11;87.73;101547.55;105846;1257;69743;-72
2023/01/25 04:29:29;;;;;;;22.60;16.30;;;;;;;-1.15;87.50;101549.58;105843;1257;72073;-71
2023/01/25 04:32:08;;;;;;;24.30;16.40;;;;;;;-1.19;87.33;101548.33;105726;1261;59711;-70
2023/01/25 04:34:37;;;;;;;19.60;15.60;;;;;;;-1.24;87.13;101552.30;105787;1260;59665;-70
2023/01/25 04:37:06;;;;;;;24.80;20.00;;;;;;;-1.28;86.88;101553.18;105272;1256;73879;-71
2023/01/25 04:39:40;;;;;;;24.40;17.80;;;;;;;-1.35;86.87;101552.13;105320;1259;67878;-70
2023/01/25 04:42:08;;;;;;;27.40;19.40;;;;;;;-1.40;86.82;101550.52;105439;1260;72512;-70
2023/01/25 04:44:38;;;;;;;26.70;16.30;;;;;;;-1.42;86.97;101546.27;105488;1256;62326;-70
2023/01/25 04:47:06;;;;;;;20.50;15.20;;;;;;;-1.42;86.96;101550.47;105870;1256;60571;-70
2023/01/25 04:49:35;;;;;;;26.20;18.00;;;;;;;-1.50;86.64;101549.76;105404;1259;73689;-72
2023/01/25 04:52:03;;;;;;;20.20;15.30;;;;;;;-1.54;86.97;101548.29;105808;1257;67163;-73
2023/01/25 04:54:31;;;;;;;25.40;15.70;;;;;;;-1.61;86.61;101545.52;105613;1256;72331;-72
2023/01/25 04:57:00;;;;;;;19.00;13.20;;;;;;;-1.71;86.89;101551.13;105853;1258;60537;-73
2023/01/25 04:59:28;;;;;;;21.60;14.20;;;;;;;-1.73;87.34;101550.92;105835;1257;61177;-73
2023/01/25 05:01:56;;;;;;;16.00;11.80;;;;;;;-1.70;87.47;101557.08;105431;1256;74049;-72
2023/01/25 05:04:26;;;;;;;17.10;14.00;;;;;;;-1.69;87.50;101561.33;105740;1260;69668;-74
2023/01/25 05:06:55;;;;;;;13.00;9.90;;;;;;;-1.70;87.90;101562.80;105653;1258;74408;-72
2023/01/25 05:09:23;;;;;;;19.30;13.10;;;;;;;-1.69;87.81;101555.88;105627;1262;60469;-72
2023/01/25 05:11:51;;;;;;;14.60;10.40;;;;;;;-1.70;88.28;101559.14;105849;1256;61104;-73
2023/01/25 05:14:25;;;;;;;14.40;11.00;;;;;;;-1.61;88.38;101551.39;105972;1257;75418;-71
2023/01/25 05:16:54;;;;;;;16.70;11.50;;;;;;;-1.46;88.78;101552.40;105876;1259;68823;-71
2023/01/25 05:19:22;;;;;;;18.10;12.50;;;;;;;-1.33;88.31;101555.51;105332;1257;74302;-71
2023/01/25 05:21:57;;;;;;;16.60;12.20;;;;;;;-1.28;88.19;101552.29;105722;1259;60369;-73
2023/01/25 05:24:31;;;;;;;15.20;11.70;;;;;;;-1.36;87.65;101549.98;105706;1257;62162;-71
2023/01/25 05:27:04;;;;;;;18.60;11.60;;;;;;;-1.48;87.84;101546.42;105376;1259;74786;-71
2023/01/25 05:29:56;;;;;;;14.70;11.40;;;;;;;-1.59;87.99;101543.48;105391;1259;67208;-70
2023/01/25 05:32:49;;;;;;;16.20;12.20;;;;;;;-1.68;88.10;101542.05;105529;1256;72229;-74
2023/01/25 05:35:17;;;;;;;15.80;11.00;;;;;;;-1.71;88.32;101538.52;105632;1264;63089;-72
2023/01/25 05:37:46;;;;;;;17.50;12.90;;;;;;;-1.74;88.76;101539.76;105805;1260;60329;-75
2023/01/25 05:40:18;;;;;;;21.60;13.00;;;;;;;-1.73;88.90;101544.84;105678;1260;74291;-72
2023/01/25 05:42:56;;;;;;;20.00;15.90;;;;;;;-1.73;89.22;101548.88;105778;1259;66715;-74
2023/01/25 05:45:25;;;;;;;17.90;12.90;;;;;;;-1.75;89.27;101549.68;105790;1260;70870;-73
2023/01/25 05:47:57;;;;;;;19.00;12.20;;;;;;;-1.76;89.42;101550.45;105788;1259;60463;-73
2023/01/25 10:00:36;;;;;;;55.20;27.80;;;;;;;-2.36;96.49;101491.55;103055;1291;600129;-74
2023/01/25 10:03:24;;;;;;;42.50;28.80;;;;;;;-2.35;96.60;101487.41;105051;1265;60885;-73
2023/01/25 10:05:55;;;;;;;34.40;25.30;;;;;;;-2.26;96.86;101483.74;105179;1263;60687;-73
2023/01/25 10:08:37;;;;;;;34.60;19.70;;;;;;;-2.16;96.73;101476.06;105257;1266;72590;-72
2023/01/25 10:11:23;;;;;;;21.20;16.80;;;;;;;-2.00;96.31;101471.40;105440;1261;69237;-70
2023/01/25 10:13:51;;;;;;;26.10;17.10;;;;;;;-1.85;95.71;101466.09;105145;1263;624351;-69
2023/01/25 10:16:22;;;;;;;31.80;21.40;;;;;;;-1.73;95.71;101459.52;105437;1260;59395;-70
2023/01/25 10:19:11;;;;;;;24.00;17.90;;;;;;;-1.62;95.29;101453.30;105673;1260;60176;-71
2023/01/25 10:22:12;;;;;;;26.40;18.90;;;;;;;-1.62;94.09;101452.63;105664;1262;72723;-69
2023/01/25 10:25:14;;;;;;;31.30;20.90;;;;;;;-1.62;93.81;101452.05;105661;1260;68052;-69
2023/01/25 10:27:58;;;;;;;28.50;18.90;;;;;;;-1.60;93.67;101449.81;105392;1261;72439;-70
2023/01/25 10:30:27;;;;;;;28.40;20.10;;;;;;;-1.51;93.12;101443.79;105316;1259;59560;-70
2023/01/25 10:33:00;;;;;;;27.00;16.90;;;;;;;-1.49;92.56;101435.87;105462;1260;60256;-71
2023/01/25 10:35:31;;;;;;;28.60;19.90;;;;;;;-1.42;92.39;101432.40;105614;1260;73330;-71
2023/01/25 10:38:10;;;;;;;24.90;18.00;;;;;;;-1.33;91.95;101430.41;105679;1260;69442;-69
2023/01/25 10:40:40;;;;;;;;;;;;;;;-1.25;91.27;101433.64;105442;1259;74456;-69
2023/01/25 10:43:16;;;;;;;19.50;15.10;;;;;;;-1.21;91.28;101432.20;105709;1263;59663;-70
2023/01/25 10:45:45;;;;;;;27.50;16.90;;;;;;;-1.20;90.95;101432.97;105715;1260;61210;-69
2023/01/25 10:48:19;;;;;;;25.70;16.50;;;;;;;-1.21;90.63;101427.83;105969;1254;74097;-74
2023/01/25 10:50:50;;;;;;;25.00;17.10;;;;;;;-1.23;90.46;101420.98;105826;1254;69715;-73
2023/01/25 10:53:26;;;;;;;23.30;15.70;;;;;;;-1.25;90.48;101419.73;105865;1259;73883;-73
2023/01/25 10:56:15;;;;;;;28.90;20.20;;;;;;;-1.25;90.41;101414.09;105856;1255;60683;-74
2023/01/25 10:58:47;;;;;;;22.10;16.30;;;;;;;-1.27;90.18;101414.83;105650;1256;60675;-70
2023/01/25 11:01:30;;;;;;;25.30;17.30;;;;;;;-1.31;89.99;101414.06;105808;1257;74254;-72
2023/01/25 11:04:00;;;;;;;27.20;18.90;;;;;;;-1.25;89.85;101409.71;105501;1257;70000;-71
2023/01/25 11:06:32;;;;;;;27.40;21.00;;;;;;;-1.20;89.60;101405.58;105783;1257;73204;-73
2023/01/25 11:09:04;;;;;;;29.40;19.80;;;;;;;-1.12;89.31;101404.83;105647;1257;60988;-75
2023/01/25 11:11:37;;;;;;;28.50;20.70;;;;;;;-1.03;89.15;101406.52;105561;1256;61554;-72
2023/01/25 11:14:15;;;;;;;24.80;18.50;;;;;;;-0.98;88.68;101396.04;105588;1260;74693;-73
2023/01/25 11:16:45;;;;;;;25.90;19.00;;;;;;;-0.96;88.45;101391.30;105829;1256;67880;-71
2023/01/25 11:19:25;;;;;;;27.50;19.00;;;;;;;-0.96;88.35;101393.39;105653;1257;72669;-72
2023/01/25 11:21:56;;;;;;;26.90;18.90;;;;;;;-0.94;88.02;101399.23;105803;1257;61384;-71
2023/01/25 11:24:30;;;;;;;26.20;18.30;;;;;;;-1.00;87.43;101394.98;105868;1255;59650;-72
2023/01/25 11:27:21;;;;;;;26.70;18.10;;;;;;;-1.14;86.63;101391.10;106259;1257;74661;-74
2023/01/25 11:30:13;;;;;;;24.10;18.20;;;;;;;-1.29;86.92;101389.45;106193;1257;70210;-71
2023/01/25 11:32:41;;;;;;;25.60;20.20;;;;;;;-1.36;87.46;101389.50;106306;1261;71936;-73
2023/01/25 11:35:31;;;;;;;25.60;18.70;;;;;;;-1.37;87.87;101386.58;106215;1261;61544;-73
2023/01/25 11:38:16;;;;;;;25.80;17.60;;;;;;;-1.37;88.28;101384.65;106529;1257;60948;-71
2023/01/25 11:40:44;;;;;;;28.40;18.90;;;;;;;-1.29;88.22;101381.86;106344;1257;72434;-71
2023/01/25 11:43:24;;;;;;;26.20;18.10;;;;;;;-1.23;88.12;101377.67;106457;1257;67425;-71
2023/01/25 11:46:02;;;;;;;29.50;18.00;;;;;;;-1.20;88.34;101372.09;106293;1257;74782;-69
2023/01/25 11:48:48;;;;;;;31.90;20.50;;;;;;;-1.15;88.27;101367.64;106315;1257;59641;-72
2023/01/25 11:51:46;;;;;;;25.00;17.40;;;;;;;-1.12;88.34;101366.52;106497;1255;60926;-73
2023/01/25 11:54:42;;;;;;;31.40;23.10;;;;;;;-1.14;88.07;101363.34;106529;1256;72771;-72
2023/01/25 11:57:20;;;;;;;28.70;19.80;;;;;;;-1.18;88.16;101362.65;106462;1258;66738;-73
2023/01/25 12:00:04;;;;;;;27.60;19.90;;;;;;;-1.21;88.05;101358.70;106500;1257;73365;-71
2023/01/25 12:02:54;;;;;;;31.30;20.50;;;;;;;-1.19;88.50;101360.42;106232;1257;59602;-75
2023/01/25 12:05:43;;;;;;;31.10;22.00;;;;;;;-1.11;88.44;101363.42;106056;1257;62496;-69
2023/01/25 12:08:18;;;;;;;34.30;21.60;;;;;;;-1.05;88.14;101358.15;106004;1257;72827;-71
2023/01/25 12:11:02;;;;;;;34.50;23.60;;;;;;;-1.02;88.13;101356.23;106227;1257;67409;-73
2023/01/25 12:14:09;;;;;;;33.40;23.50;;;;;;;-1.05;87.70;101360.34;106339;1257;74193;-71
2023/01/25 12:17:17;;;;;;;32.40;22.10;;;;;;;-1.13;87.61;101364.42;106201;1259;59621;-69
2023/01/25 12:19:50;;;;;;;29.60;20.10;;;;;;;-1.22;87.77;101361.88;106345;1257;59669;-72
2023/01/25 12:22:44;;;;;;;30.30;19.90;;;;;;;-1.27;87.71;101359.70;106263;1256;74130;-72
2023/01/25 12:26:04;;;;;;;31.90;20.50;;;;;;;-1.31;87.99;101361.93;106297;1257;69762;-76
2023/01/25 12:28:48;;;;;;;36.00;24.50;;;;;;;-1.38;88.11;101360.10;106134;1257;74469;-75
2023/01/25 12:31:17;;;;;;;31.10;22.30;;;;;;;-1.38;88.39;101363.48;106326;1259;60597;-70
2023/01/25 12:33:54;;;;;;;29.30;22.60;;;;;;;-1.33;88.43;101364.40;105900;1256;59651;-71
2023/01/25 12:36:56;;;;;;;29.70;22.40;;;;;;;-1.29;88.51;101355.30;106343;1259;72702;-70
2023/01/25 12:39:29;;;;;;;35.00;22.30;;;;;;;-1.29;88.28;101345.81;105792;1256;69886;-73
2023/01/25 12:42:23;;;;;;;38.10;22.00;;;;;;;-1.28;88.22;101349.05;105962;1257;72435;-73
2023/01/25 12:45:01;;;;;;;41.80;28.10;;;;;;;-1.26;88.22;101352.79;106221;1257;59683;-70
2023/01/25 12:47:38;;;;;;;43.00;27.30;;;;;;;-1.26;88.40;101361.05;105805;1258;59640;-70
2023/01/25 12:50:21;;;;;;;40.90;25.50;;;;;;;-1.27;88.14;101358.29;105890;1261;74754;-71
2023/01/25 12:52:52;;;;;;;26.50;20.60;;;;;;;-1.28;88.19;101354.49;106434;1256;69020;-73
2023/01/25 12:55:20;;;;;;;33.60;25.40;;;;;;;-1.30;88.09;101356.64;106081;1262;71146;-69
2023/01/25 12:58:13;;;;;;;46.20;30.40;;;;;;;-1.34;88.28;101352.55;105679;1260;59743;-72
2023/01/25 13:00:53;;;;;;;42.00;31.00;;;;;;;-1.40;88.11;101348.81;105785;1259;60480;-68
2023/01/25 13:03:46;;;;;;;41.40;29.30;;;;;;;-1.42;88.46;101345.19;105873;1257;73524;-68
2023/01/25 13:06:18;;;;;;;43.70;27.60;;;;;;;-1.38;88.78;101350.57;105747;1257;67997;-74
2023/01/25 13:08:57;;;;;;;44.20;29.50;;;;;;;-1.34;88.76;101345.89;105707;1257;73554;-71
2023/01/25 13:11:40;;;;;;;42.60;28.20;;;;;;;-1.33;88.52;101345.56;106056;1261;60219;-71
2023/01/25 13:14:15;;;;;;;36.90;26.80;;;;;;;-1.41;88.39;101347.50;105842;1257;62013;-73
2023/01/25 13:16:50;;;;;;;35.90;26.80;;;;;;;-1.50;88.46;101341.24;105576;1257;73030;-69
2023/01/25 13:19:32;;;;;;;50.40;28.40;;;;;;;-1.53;88.79;101339.95;105701;1257;68659;-69
2023/01/25 13:22:00;;;;;;;34.00;25.80;;;;;;;-1.60;89.15;101334.77;106301;1257;72701;-85
2023/01/25 13:24:32;;;;;;;38.80;25.20;;;;;;;-1.66;89.37;101338.66;106354;1257;61735;-77
2023/01/25 13:27:25;;;;;;;38.60;27.40;;;;;;;-1.65;89.90;101335.23;106189;1264;59761;-78
2023/01/25 13:29:58;;;;;;;41.80;29.20;;;;;;;-1.61;90.00;101329.05;105212;1260;1002934;-78
2023/01/25 13:32:27;;;;;;;40.10;28.10;;;;;;;-1.56;89.94;101326.33;106298;1261;67982;-77
2023/01/25 13:34:57;;;;;;;46.80;30.20;;;;;;;-1.58;89.61;101319.95;106188;1260;74267;-77
2023/01/25 13:37:30;;;;;;;44.30;29.50;;;;;;;-1.57;89.50;101321.15;106068;1267;59790;-79
2023/01/25 13:40:02;;;;;;;46.10;33.00;;;;;;;-1.61;89.67;101321.48;105994;1262;59723;-79
2023/01/25 13:43:18;;;;;;;66.00;34.40;;;;;;;-1.61;89.71;101321.10;106363;1260;74172;-79
2023/01/25 13:45:50;;;;;;;45.70;30.00;;;;;;;-1.52;90.06;101314.56;105482;1260;69768;-75
2023/01/25 13:48:24;;;;;;;50.60;29.80;;;;;;;-1.45;90.31;101312.31;105417;1259;73467;-75
2023/01/25 13:50:56;;;;;;;41.40;28.30;;;;;;;-1.37;90.18;101311.64;105476;1259;60856;-72
2023/01/25 19:04:02;;;;;;;64.80;43.30;;;;;;;-2.25;99.25;101218.04;103537;1285;613078;-74
2023/01/25 19:06:30;;;;;;;78.40;49.70;;;;;;;-2.08;99.24;101211.31;105009;1274;103811;-73
2023/01/25 19:08:59;;;;;;;73.20;48.90;;;;;;;-1.94;100.00;101211.66;105359;1269;59361;-72
2023/01/25 19:11:27;;;;;;;77.00;47.30;;;;;;;-1.89;99.41;101216.52;105569;1275;73641;-75
2023/01/25 19:13:57;;;;;;;66.60;42.60;;;;;;;-1.93;98.22;101216.96;105381;1270;68839;-73
2023/01/25 19:16:25;;;;;;;59.80;40.70;;;;;;;-1.94;97.91;101210.08;105348;1273;71151;-71
2023/01/25 19:18:54;;;;;;;61.10;39.60;;;;;;;-1.94;97.68;101207.76;105598;1274;63027;-72
2023/01/25 19:21:24;;;;;;;55.90;39.10;;;;;;;-1.89;97.93;101207.86;105416;1270;60001;-73
2023/01/25 19:23:52;;;;;;;63.10;40.70;;;;;;;-1.87;96.95;101207.92;106211;1264;71454;-70
2023/01/25 19:26:22;;;;;;;71.60;46.10;;;;;;;-1.90;96.65;101208.98;106128;1264;67663;-71
2023/01/25 19:28:51;;;;;;;70.80;42.60;;;;;;;-1.93;96.55;101208.08;105968;1263;72153;-72
2023/01/25 19:31:23;;;;;;;63.80;41.50;;;;;;;-1.93;96.06;101207.50;105992;1263;62392;-70
2023/01/25 19:33:56;;;;;;;66.70;41.40;;;;;;;-1.89;96.64;101201.38;105876;1266;60217;-73
2023/01/25 19:36:25;;;;;;;54.80;35.10;;;;;;;-1.77;96.20;101198.96;105953;1260;73890;-71
2023/01/25 19:38:55;;;;;;;63.50;40.60;;;;;;;-1.67;96.03;101199.10;106130;1274;68988;-71
2023/01/25 19:41:27;;;;;;;61.70;40.40;;;;;;;-1.67;95.28;101196.16;105989;1267;74346;-70
2023/01/25 19:43:56;;;;;;;69.50;42.30;;;;;;;-1.72;95.25;101196.89;105654;1267;59977;-70
2023/01/25 19:46:29;;;;;;;57.60;37.60;;;;;;;-1.77;94.65;101195.58;105809;1263;60702;-73
2023/01/25 19:49:04;;;;;;;56.50;38.80;;;;;;;-1.83;94.80;101196.45;105620;1262;72774;-71
2023/01/25 19:51:37;;;;;;;56.00;36.40;;;;;;;-1.84;94.93;101187.42;105726;1264;70302;-72
2023/01/25 19:54:06;;;;;;;;;;;;;;;-1.86;94.62;101186.31;105088;1266;1002952;-70
2023/01/25 19:56:39;;;;;;;56.50;37.00;;;;;;;-1.85;94.66;101187.11;105887;1265;59714;-72
2023/01/25 19:59:12;;;;;;;57.20;38.30;;;;;;;-1.83;94.66;101182.73;105684;1260;60738;-72
2023/01/25 20:01:42;;;;;;;59.70;37.30;;;;;;;-1.83;94.36;101184.15;105758;1267;72829;-71
2023/01/25 20:04:12;;;;;;;53.00;34.90;;;;;;;-1.88;94.19;101180.40;105560;1264;68971;-73
2023/01/25 20:06:42;;;;;;;56.00;35.50;;;;;;;-1.94;93.99;101183.38;105705;1265;73593;-73
2023/01/25 20:09:12;;;;;;;46.40;34.10;;;;;;;-1.98;94.41;101181.61;105714;1263;61289;-71
2023/01/25 20:11:41;;;;;;;55.00;34.10;;;;;;;-1.98;94.38;101180.39;105681;1260;61595;-71
2023/01/25 20:14:10;;;;;;;58.80;38.30;;;;;;;-1.97;94.43;101181.48;105756;1266;72547;-71
2023/01/25 20:16:40;;;;;;;60.80;36.50;;;;;;;-2.00;94.38;101181.63;105298;1263;68972;-74
2023/01/25 20:19:12;;;;;;;60.90;38.20;;;;;;;-2.05;94.63;101182.36;105722;1266;73045;-73
2023/01/25 20:21:40;;;;;;;47.20;31.10;;;;;;;-2.02;94.53;101184.07;104810;1262;1003109;-73
2023/01/25 20:24:09;;;;;;;60.90;36.40;;;;;;;-2.00;94.61;101193.92;105518;1266;61201;-70
2023/01/25 20:26:41;;;;;;;54.90;35.40;;;;;;;-2.02;94.40;101191.14;105562;1270;73892;-71
2023/01/25 20:29:10;;;;;;;55.20;36.60;;;;;;;-2.07;94.10;101194.54;105327;1270;68426;-71
2023/01/25 20:31:41;;;;;;;46.00;31.60;;;;;;;-2.07;94.48;101196.64;105579;1269;74556;-72
2023/01/25 20:34:14;;;;;;;55.90;36.50;;;;;;;-2.06;94.24;101191.41;105547;1264;59686;-73
2023/01/25 20:36:42;;;;;;;60.40;33.20;;;;;;;-2.14;93.84;101187.59;104928;1267;61162;-70
2023/01/25 20:39:12;;;;;;;53.20;32.10;;;;;;;-2.25;93.90;101186.35;105582;1265;72312;-70
2023/01/25 20:41:41;;;;;;;56.90;32.60;;;;;;;-2.28;94.30;101188.41;105659;1267;66283;-72
2023/01/25 20:44:15;;;;;;;53.70;33.30;;;;;;;-2.30;94.74;101185.29;106392;1260;72379;-75
2023/01/25 20:46:48;;;;;;;53.00;35.00;;;;;;;-2.28;94.70;101191.62;106552;1261;60094;-75
2023/01/25 20:49:20;;;;;;;54.40;36.10;;;;;;;-2.34;94.56;101190.48;106829;1267;60154;-77
2023/01/25 20:51:48;;;;;;;51.40;33.30;;;;;;;-2.35;94.97;101193.35;106353;1260;74405;-76
2023/01/25 20:54:19;;;;;;;52.20;31.50;;;;;;;-2.34;95.08;101189.95;106300;1265;69554;-74
2023/01/25 20:56:49;;;;;;;46.00;29.90;;;;;;;-2.38;94.64;101187.83;106494;1258;73047;-73
2023/01/25 20:59:18;;;;;;;52.10;31.50;;;;;;;-2.38;95.14;101186.08;105924;1257;59623;-73
2023/01/25 21:01:46;;;;;;;51.50;32.30;;;;;;;-2.35;95.49;101188.61;106039;1262;61072;-71
2023/01/25 21:04:14;;;;;;;51.10;34.00;;;;;;;-2.38;94.83;101190.70;105092;1258;73838;-70
2023/01/25 21:06:42;;;;;;;55.60;34.30;;;;;;;-2.41;95.12;101181.13;105299;1257;68497;-69
2023/01/25 21:09:11;;;;;;;49.10;28.60;;;;;;;-2.47;94.66;101180.72;105488;1258;72792;-68
2023/01/25 21:11:40;;;;;;;58.40;35.10;;;;;;;-2.50;94.75;101180.44;105390;1262;61371;-67
2023/01/25 21:14:08;;;;;;;44.50;29.30;;;;;;;-2.47;95.21;101180.41;105269;1261;59602;-69
2023/01/25 21:16:37;;;;;;;46.70;27.90;;;;;;;-2.42;95.18;101175.05;105339;1260;73877;-73
2023/01/25 21:19:07;;;;;;;46.00;30.00;;;;;;;-2.39;95.23;101170.76;105616;1257;69551;-70
2023/01/25 21:21:37;;;;;;;59.60;35.00;;;;;;;-2.41;94.93;101170.53;105843;1258;72569;-72
2023/01/25 21:24:06;;;;;;;50.60;30.20;;;;;;;-2.46;94.74;101167.83;106383;1258;59792;-69